Time;durP1;ratioP1;P1;durP2;ratioP2;P2;SDS_P1;SDS_P2;PMS_P1;PMS_P2;Temp;Humidity;BMP_temperature;BMP_pressure;BME280_temperature;BME280_humidity;BME280_pressure;Samples;Min_cycle;Max_cycle;Signal;HPM_P1;HPM_P2
2022/01/10 00:00:18;;;;;;;4.23;3.80;;;2.00;99.90;;;;;;5029584;28;20223;-77
2022/01/10 00:02:46;;;;;;;3.93;3.23;;;2.00;99.90;;;;;;5029234;28;20270;-77
2022/01/10 00:05:13;;;;;;;4.53;4.07;;;1.90;99.90;;;;;;5030964;28;20666;-77
2022/01/10 00:07:39;;;;;;;4.97;3.93;;;1.80;99.90;;;;;;5031101;28;20232;-77
2022/01/10 00:10:06;;;;;;;4.13;3.70;;;1.80;99.90;;;;;;5032538;28;20652;-77
2022/01/10 00:12:31;;;;;;;3.87;3.43;;;1.80;99.90;;;;;;5030902;28;20200;-76
2022/01/10 00:14:57;;;;;;;4.57;4.07;;;1.70;99.90;;;;;;5017374;28;20181;-77
2022/01/10 00:17:23;;;;;;;3.50;3.20;;;1.70;99.90;;;;;;5026792;28;20636;-76
2022/01/10 00:19:48;;;;;;;6.83;3.97;;;1.70;99.90;;;;;;5026270;28;20287;-77
2022/01/10 00:22:14;;;;;;;5.80;3.60;;;1.70;99.90;;;;;;5023171;28;20266;-77
2022/01/10 00:24:40;;;;;;;4.77;4.23;;;1.60;99.90;;;;;;5017901;28;20185;-77
2022/01/10 00:27:05;;;;;;;4.13;3.57;;;1.60;99.90;;;;;;5029460;28;20184;-77
2022/01/10 00:29:32;;;;;;;6.23;3.80;;;1.70;99.90;;;;;;5032642;28;20243;-77
2022/01/10 00:31:58;;;;;;;4.93;3.53;;;1.60;99.90;;;;;;5026369;28;20741;-77
2022/01/10 00:34:25;;;;;;;4.60;4.20;;;1.60;99.90;;;;;;5023762;28;20189;-76
2022/01/10 00:36:50;;;;;;;5.07;3.97;;;1.50;99.90;;;;;;5028780;28;20189;-77
2022/01/10 00:39:16;;;;;;;4.00;3.60;;;1.50;99.90;;;;;;5031963;28;20598;-77
2022/01/10 00:41:42;;;;;;;4.43;3.60;;;1.50;99.90;;;;;;5030924;28;20235;-77
2022/01/10 00:44:09;;;;;;;4.67;3.47;;;1.50;99.90;;;;;;5025605;28;20183;-77
2022/01/10 00:46:35;;;;;;;6.20;3.30;;;1.50;99.90;;;;;;5022555;28;20671;-77
2022/01/10 00:49:01;;;;;;;4.60;3.63;;;1.50;99.90;;;;;;5031832;28;20713;-77
2022/01/10 00:51:27;;;;;;;5.70;3.70;;;1.40;99.90;;;;;;5035779;28;20264;-77
2022/01/10 00:53:52;;;;;;;4.23;3.57;;;1.40;99.90;;;;;;5028222;28;20558;-77
2022/01/10 00:56:19;;;;;;;4.00;3.60;;;1.40;99.90;;;;;;5029069;28;20180;-77
2022/01/10 00:58:45;;;;;;;3.20;2.90;;;1.30;99.90;;;;;;5021651;28;20326;-77
2022/01/10 01:01:11;;;;;;;4.07;3.67;;;1.40;99.90;;;;;;5024234;28;20299;-76
2022/01/10 01:03:37;;;;;;;3.50;3.07;;;1.50;99.90;;;;;;5023337;28;20331;-76
2022/01/10 01:06:03;;;;;;;4.40;3.30;;;1.50;99.90;;;;;;5028688;28;20267;-77
2022/01/10 01:08:31;;;;;;;6.63;3.73;;;1.60;99.90;;;;;;5029205;28;20181;-76
2022/01/10 01:13:40;;;;;;;4.67;3.43;;;1.60;99.90;;;;;;5028718;28;20291;-77
2022/01/10 01:26:26;;;;;;;3.53;3.13;;;1.60;99.90;;;;;;5027441;28;20575;-76
2022/01/10 01:28:52;;;;;;;4.90;3.27;;;1.50;99.90;;;;;;5026654;28;20195;-77
2022/01/10 01:31:17;;;;;;;6.13;3.90;;;1.40;99.90;;;;;;5033414;28;20618;-77
2022/01/10 01:33:43;;;;;;;3.87;3.30;;;1.50;99.90;;;;;;5030064;28;20591;-77
2022/01/10 01:36:09;;;;;;;5.07;3.27;;;1.50;99.90;;;;;;5034291;28;20184;-77
2022/01/10 01:38:36;;;;;;;4.47;3.37;;;1.50;99.90;;;;;;5026918;28;20562;-77
2022/01/10 01:43:48;;;;;;;5.53;3.40;;;1.30;99.90;;;;;;5028750;28;20555;-77
2022/01/10 01:46:14;;;;;;;3.80;3.47;;;1.30;99.90;;;;;;5024382;28;20505;-77
2022/01/10 01:48:40;;;;;;;5.23;3.50;;;1.20;99.90;;;;;;5030550;28;20177;-77
2022/01/10 01:51:06;;;;;;;3.70;3.40;;;1.20;99.90;;;;;;5039484;28;20189;-77
2022/01/10 01:53:32;;;;;;;6.83;3.67;;;1.20;99.90;;;;;;5031464;28;20292;-77
2022/01/10 01:55:58;;;;;;;4.93;3.87;;;1.40;99.90;;;;;;5026360;28;20189;-77
2022/01/10 01:58:25;;;;;;;3.80;3.10;;;1.40;99.90;;;;;;5033789;28;20191;-77
2022/01/10 02:00:52;;;;;;;4.50;4.10;;;1.50;99.90;;;;;;5029980;28;20561;-77
2022/01/10 02:03:17;;;;;;;4.20;3.40;;;1.50;99.90;;;;;;5024386;28;20287;-77
2022/01/10 02:05:43;;;;;;;5.37;3.40;;;1.50;99.90;;;;;;5029224;28;20613;-76
2022/01/10 02:08:09;;;;;;;3.37;3.13;;;1.50;99.90;;;;;;5029289;28;20314;-76
2022/01/10 02:10:35;;;;;;;5.10;3.83;;;1.50;99.90;;;;;;5032225;28;20226;-77
2022/01/10 02:13:01;;;;;;;4.63;3.93;;;1.50;99.90;;;;;;5028567;28;20304;-77
2022/01/10 02:15:35;;;;;;;5.30;3.40;;;1.50;99.90;;;;;;5029571;28;20794;-78
2022/01/10 02:18:01;;;;;;;4.93;3.80;;;1.50;99.90;;;;;;5026570;28;20195;-77
2022/01/10 02:20:31;;;;;;;9.13;4.60;;;1.40;99.90;;;;;;5033315;28;20204;-77
2022/01/10 02:22:57;;;;;;;6.13;3.70;;;1.40;99.90;;;;;;5034027;28;20192;-77
2022/01/10 02:25:23;;;;;;;5.50;3.70;;;1.50;99.90;;;;;;5025443;28;20177;-77
2022/01/10 02:27:49;;;;;;;5.00;4.13;;;1.50;99.90;;;;;;5024888;28;20189;-77
2022/01/10 02:30:14;;;;;;;4.97;3.80;;;1.50;99.90;;;;;;5022431;28;20252;-77
2022/01/10 02:32:40;;;;;;;5.07;4.03;;;1.50;99.90;;;;;;5030843;28;20196;-77
2022/01/10 02:35:25;;;;;;;4.33;4.00;;;1.40;99.90;;;;;;5030412;28;20189;-77
2022/01/10 02:37:53;;;;;;;5.97;4.77;;;1.50;99.90;;;;;;5024707;28;20702;-77
2022/01/10 02:40:20;;;;;;;7.30;5.50;;;1.40;99.90;;;;;;5025663;28;20206;-77
2022/01/10 02:42:46;;;;;;;5.50;5.00;;;1.50;99.90;;;;;;5028623;28;20203;-77
2022/01/10 02:45:11;;;;;;;6.10;5.50;;;1.40;99.90;;;;;;5033613;28;20548;-77
2022/01/10 02:47:37;;;;;;;9.73;6.30;;;1.50;99.90;;;;;;5029488;28;20173;-77
2022/01/10 02:50:04;;;;;;;9.57;5.97;;;1.40;99.90;;;;;;5032317;28;20533;-77
2022/01/10 02:52:30;;;;;;;10.13;6.50;;;1.40;99.90;;;;;;5032556;28;20204;-77
2022/01/10 02:55:00;;;;;;;6.30;5.30;;;1.40;99.90;;;;;;5030971;28;20191;-76
2022/01/10 02:57:26;;;;;;;8.70;5.80;;;1.40;99.90;;;;;;5025983;28;20538;-76
2022/01/10 02:59:52;;;;;;;6.10;5.50;;;1.40;99.90;;;;;;5026496;28;20255;-76
2022/01/10 03:02:20;;;;;;;7.23;6.27;;;1.50;99.90;;;;;;5019830;28;20262;-76
2022/01/10 03:04:45;;;;;;;8.27;5.87;;;1.50;99.90;;;;;;5028855;28;20196;-76
2022/01/10 03:07:16;;;;;;;7.43;5.73;;;1.50;99.90;;;;;;5030169;28;20639;-76
2022/01/10 03:09:41;;;;;;;7.40;5.93;;;1.50;99.90;;;;;;5020827;28;20600;-76
2022/01/10 03:12:09;;;;;;;7.83;6.27;;;1.40;99.90;;;;;;5029509;28;20205;-77
2022/01/10 03:14:35;;;;;;;6.50;5.90;;;1.40;99.90;;;;;;5028011;28;20811;-77
2022/01/10 03:17:01;;;;;;;6.70;6.00;;;1.50;99.90;;;;;;5026624;28;20718;-77
2022/01/10 03:19:26;;;;;;;8.83;6.17;;;1.60;99.90;;;;;;5024967;28;20192;-76
2022/01/10 03:21:52;;;;;;;8.20;6.33;;;1.60;99.90;;;;;;5030425;28;20588;-77
2022/01/10 03:24:19;;;;;;;6.73;5.90;;;1.60;99.90;;;;;;5024577;28;20184;-77
2022/01/10 03:26:44;;;;;;;7.43;6.33;;;1.60;99.90;;;;;;5031660;28;20267;-77
2022/01/10 03:29:10;;;;;;;7.83;6.27;;;1.60;99.90;;;;;;5031834;28;20264;-77
2022/01/10 03:31:36;;;;;;;9.80;6.70;;;1.70;99.90;;;;;;5027084;28;20188;-77
2022/01/10 03:34:02;;;;;;;6.93;6.33;;;1.70;99.90;;;;;;5030300;28;20222;-78
2022/01/10 03:36:27;;;;;;;10.53;6.63;;;1.60;99.90;;;;;;5032676;28;20556;-77
2022/01/10 03:38:53;;;;;;;7.07;6.33;;;1.70;99.90;;;;;;5032507;28;20215;-77
2022/01/10 03:41:19;;;;;;;8.23;5.93;;;1.70;99.90;;;;;;5026997;28;20210;-77
2022/01/10 03:43:45;;;;;;;9.50;6.33;;;1.70;99.90;;;;;;5032571;28;20185;-77
2022/01/10 03:46:10;;;;;;;7.67;6.20;;;1.70;99.90;;;;;;5032373;28;20609;-77
2022/01/10 03:48:36;;;;;;;6.73;6.13;;;1.80;99.90;;;;;;5031790;28;20238;-77
2022/01/10 03:51:02;;;;;;;7.97;7.03;;;1.80;99.90;;;;;;5037044;28;20185;-78
2022/01/10 03:53:28;;;;;;;7.93;6.43;;;1.80;99.90;;;;;;5032681;28;20735;-78
2022/01/10 03:55:54;;;;;;;6.90;6.17;;;1.60;99.90;;;;;;5027137;28;20181;-78
2022/01/10 03:58:20;;;;;;;6.47;5.87;;;1.70;99.90;;;;;;5031951;28;20530;-78
2022/01/10 04:00:46;;;;;;;6.67;6.03;;;1.70;99.90;;;;;;5030870;28;20219;-77
2022/01/10 04:03:12;;;;;;;7.63;6.30;;;1.60;99.90;;;;;;5029901;28;20289;-77
2022/01/10 04:05:37;;;;;;;7.13;5.67;;;1.60;99.90;;;;;;5026445;28;20601;-77
2022/01/10 04:08:03;;;;;;;10.10;6.43;;;1.60;99.90;;;;;;5031699;28;20183;-78
2022/01/10 04:10:29;;;;;;;7.70;5.60;;;1.60;99.90;;;;;;5030843;28;20235;-77
2022/01/10 04:12:55;;;;;;;8.77;6.20;;;1.70;99.90;;;;;;5024420;28;20205;-77
2022/01/10 04:15:21;;;;;;;6.90;6.03;;;1.50;99.90;;;;;;5025673;28;20235;-77
2022/01/10 04:17:52;;;;;;;8.93;6.37;;;1.60;99.90;;;;;;5027453;28;20692;-77
2022/01/10 04:20:18;;;;;;;6.90;6.30;;;1.60;99.90;;;;;;5031343;28;20180;-77
2022/01/10 04:22:44;;;;;;;10.23;7.33;;;1.60;99.90;;;;;;5029705;28;20201;-78
2022/01/10 04:25:10;;;;;;;8.30;7.00;;;1.60;99.90;;;;;;5030290;28;20222;-77
2022/01/10 04:27:35;;;;;;;7.77;6.90;;;1.60;99.90;;;;;;5029285;28;20666;-78
2022/01/10 04:30:02;;;;;;;5.60;5.10;;;1.50;99.90;;;;;;5032084;28;20252;-77
2022/01/10 04:32:31;;;;;;;7.83;6.17;;;1.60;99.90;;;;;;5025629;28;20200;-78
2022/01/10 04:34:57;;;;;;;7.50;6.27;;;1.60;99.90;;;;;;5024356;28;20216;-77
2022/01/10 04:37:23;;;;;;;7.33;5.43;;;1.60;99.90;;;;;;5030292;28;20176;-78
2022/01/10 04:39:48;;;;;;;8.97;6.30;;;1.50;99.90;;;;;;5032008;28;20235;-78
2022/01/10 04:42:14;;;;;;;6.70;5.93;;;1.50;99.90;;;;;;5029283;28;20217;-77
2022/01/10 04:44:41;;;;;;;6.63;5.33;;;1.40;99.90;;;;;;5032484;28;20172;-77
2022/01/10 04:47:06;;;;;;;7.30;5.77;;;1.30;99.90;;;;;;5029291;28;20216;-77
2022/01/10 04:49:47;;;;;;;6.50;5.27;;;1.40;99.90;;;;;;5032249;28;20203;-77
2022/01/10 04:52:22;;;;;;;8.30;5.57;;;1.40;99.90;;;;;;5027415;28;20200;-76
2022/01/10 04:54:47;;;;;;;9.10;6.67;;;1.30;99.90;;;;;;5023639;28;20241;-79
2022/01/10 04:57:13;;;;;;;5.67;5.17;;;1.30;99.90;;;;;;5032182;28;20278;-77
2022/01/10 04:59:39;;;;;;;7.77;5.10;;;1.30;99.90;;;;;;5030378;28;20184;-77
2022/01/10 05:02:04;;;;;;;5.40;4.90;;;1.40;99.90;;;;;;5031012;28;20298;-76
2022/01/10 05:04:30;;;;;;;7.30;5.57;;;1.30;99.90;;;;;;5033463;28;20698;-76
2022/01/10 05:06:56;;;;;;;5.43;4.93;;;1.30;99.90;;;;;;5036863;28;20272;-76
2022/01/10 05:09:22;;;;;;;9.20;5.10;;;1.30;99.90;;;;;;5022689;28;20649;-76
2022/01/10 05:11:48;;;;;;;6.10;5.10;;;1.20;99.90;;;;;;5021174;28;20209;-75
2022/01/10 05:14:14;;;;;;;5.17;4.40;;;1.20;99.90;;;;;;5024640;28;20238;-76
2022/01/10 05:16:40;;;;;;;5.80;5.30;;;1.30;99.90;;;;;;5028567;28;20192;-75
2022/01/10 05:19:07;;;;;;;5.50;4.97;;;1.30;99.90;;;;;;5030741;28;20212;-75
2022/01/10 05:21:33;;;;;;;5.70;4.97;;;1.30;99.90;;;;;;5027000;28;20205;-76
2022/01/10 05:23:59;;;;;;;6.13;4.67;;;1.30;99.90;;;;;;5027726;28;20995;-76
2022/01/10 05:26:24;;;;;;;5.67;4.90;;;1.40;99.90;;;;;;5031885;28;20193;-76
2022/01/10 05:28:52;;;;;;;8.87;5.20;;;1.40;99.90;;;;;;5033913;28;20567;-75
2022/01/10 05:31:18;;;;;;;6.87;5.43;;;1.50;99.90;;;;;;5022573;28;20211;-76
2022/01/10 05:33:44;;;;;;;7.40;5.33;;;1.40;99.90;;;;;;5031286;28;20668;-76
2022/01/10 05:36:10;;;;;;;5.87;5.37;;;1.40;99.90;;;;;;5033710;28;20187;-74
2022/01/10 05:38:35;;;;;;;8.00;5.57;;;1.30;99.90;;;;;;5029237;28;20565;-74
2022/01/10 05:41:01;;;;;;;6.40;5.17;;;1.30;99.90;;;;;;5025417;28;20207;-75
2022/01/10 05:43:27;;;;;;;8.47;6.20;;;1.40;99.90;;;;;;5033605;28;20201;-75
2022/01/10 05:45:53;;;;;;;9.23;5.77;;;1.40;99.90;;;;;;5033721;28;20275;-76
2022/01/10 05:48:25;;;;;;;8.20;6.67;;;1.40;99.90;;;;;;5032210;28;20279;-76
2022/01/10 05:50:52;;;;;;;7.30;5.80;;;1.40;99.90;;;;;;5036477;28;20180;-75
2022/01/10 05:53:18;;;;;;;11.90;6.87;;;1.40;99.90;;;;;;5026910;28;20212;-75
2022/01/10 05:55:44;;;;;;;8.10;6.37;;;1.50;99.90;;;;;;5033207;28;20195;-75
2022/01/10 05:58:10;;;;;;;7.80;6.53;;;1.50;99.90;;;;;;5025139;28;20200;-75
2022/01/10 06:00:35;;;;;;;9.47;6.63;;;1.50;99.90;;;;;;5024195;28;20220;-76
2022/01/10 06:03:02;;;;;;;8.13;6.63;;;1.60;99.90;;;;;;5028279;28;20215;-76
2022/01/10 06:05:31;;;;;;;8.20;6.80;;;1.50;99.90;;;;;;5033055;28;20180;-76
2022/01/10 06:08:02;;;;;;;16.33;6.63;;;1.60;99.90;;;;;;5038595;28;20523;-75
2022/01/10 06:10:29;;;;;;;7.87;6.60;;;1.50;99.90;;;;;;5032500;28;20272;-74
2022/01/10 06:12:55;;;;;;;7.13;6.40;;;1.50;99.90;;;;;;5037662;28;20227;-75
2022/01/10 06:15:21;;;;;;;11.73;7.53;;;1.50;99.90;;;;;;5028511;28;20195;-74
2022/01/10 06:17:48;;;;;;;11.27;6.93;;;1.50;99.90;;;;;;5024651;28;20193;-72
2022/01/10 06:20:13;;;;;;;9.27;6.93;;;1.40;99.90;;;;;;5023743;28;20653;-73
2022/01/10 06:22:39;;;;;;;11.03;7.40;;;1.40;99.90;;;;;;5030933;28;20210;-74
2022/01/10 06:25:07;;;;;;;9.67;7.07;;;1.40;99.90;;;;;;5024480;28;20245;-73
2022/01/10 06:27:33;;;;;;;12.87;8.33;;;1.40;99.90;;;;;;5031827;28;20184;-73
2022/01/10 06:29:58;;;;;;;8.40;7.43;;;1.40;99.90;;;;;;5031844;28;20191;-73
2022/01/10 06:32:24;;;;;;;10.23;6.87;;;1.40;99.90;;;;;;5024764;28;20204;-75
2022/01/10 06:34:50;;;;;;;8.13;7.00;;;1.40;99.90;;;;;;5032757;28;20632;-75
2022/01/10 06:37:16;;;;;;;14.27;7.70;;;1.40;99.90;;;;;;5018654;28;20188;-75
2022/01/10 06:39:42;;;;;;;10.63;7.70;;;1.40;99.90;;;;;;5032409;28;20185;-75
2022/01/10 06:42:08;;;;;;;10.53;7.77;;;1.40;99.90;;;;;;5024076;28;20294;-75
2022/01/10 06:44:34;;;;;;;10.60;7.97;;;1.40;99.90;;;;;;5022416;28;20186;-75
2022/01/10 06:46:59;;;;;;;9.30;7.90;;;1.40;99.90;;;;;;5031356;28;20184;-76
2022/01/10 06:49:25;;;;;;;13.53;8.13;;;1.30;99.90;;;;;;5037352;28;20673;-73
2022/01/10 06:51:51;;;;;;;12.23;8.27;;;1.30;99.90;;;;;;5027315;28;20695;-73
2022/01/10 06:54:16;;;;;;;13.07;7.67;;;1.40;99.90;;;;;;5017044;28;20279;-72
2022/01/10 06:56:42;;;;;;;12.97;7.53;;;1.40;99.90;;;;;;5018021;28;20196;-72
2022/01/10 06:59:08;;;;;;;10.70;7.83;;;1.40;99.90;;;;;;5029021;28;20195;-73
2022/01/10 07:01:35;;;;;;;11.43;7.97;;;1.40;99.90;;;;;;5027672;28;20684;-73
2022/01/10 07:04:00;;;;;;;16.93;7.60;;;1.40;99.90;;;;;;5030686;28;20181;-73
2022/01/10 07:06:26;;;;;;;9.30;7.63;;;1.40;99.90;;;;;;5024908;28;20263;-73
2022/01/10 07:08:52;;;;;;;10.60;7.73;;;1.40;99.90;;;;;;5033384;28;20191;-73
2022/01/10 07:11:17;;;;;;;16.30;8.03;;;1.40;99.90;;;;;;5030408;28;20199;-74
2022/01/10 07:13:43;;;;;;;10.70;7.73;;;1.50;99.90;;;;;;5021569;28;20209;-73
2022/01/10 07:16:09;;;;;;;10.17;7.20;;;1.50;99.90;;;;;;5031106;28;20200;-73
2022/01/10 07:18:34;;;;;;;12.23;7.97;;;1.40;99.90;;;;;;5031682;28;20195;-73
2022/01/10 07:21:00;;;;;;;9.03;7.50;;;1.40;99.90;;;;;;5026583;28;20215;-73
2022/01/10 07:23:26;;;;;;;7.97;6.77;;;1.30;99.90;;;;;;5023756;28;20209;-74
2022/01/10 07:25:52;;;;;;;11.43;7.77;;;1.20;99.90;;;;;;5023861;28;20192;-73
2022/01/10 07:28:18;;;;;;;8.63;7.37;;;1.20;99.90;;;;;;5022341;28;20185;-74
2022/01/10 07:30:44;;;;;;;10.60;6.83;;;1.30;99.90;;;;;;5030960;28;20220;-74
2022/01/10 07:33:10;;;;;;;9.33;7.13;;;1.40;99.90;;;;;;5028968;28;20207;-73
2022/01/10 07:35:35;;;;;;;10.03;7.43;;;1.40;99.90;;;;;;5021692;28;20193;-73
2022/01/10 07:38:01;;;;;;;10.73;7.47;;;1.50;99.90;;;;;;5027815;28;20203;-73
2022/01/10 07:40:27;;;;;;;8.57;7.50;;;1.40;99.90;;;;;;5019685;28;20183;-73
2022/01/10 07:42:53;;;;;;;11.63;8.00;;;1.40;99.90;;;;;;5029022;28;20216;-73
2022/01/10 07:45:19;;;;;;;8.03;7.03;;;1.30;99.90;;;;;;5017823;28;20236;-73
2022/01/10 07:47:45;;;;;;;10.03;8.27;;;1.30;99.90;;;;;;5035169;28;20232;-73
2022/01/10 07:50:11;;;;;;;10.73;7.60;;;1.30;99.90;;;;;;5030620;28;20185;-73
2022/01/10 07:52:36;;;;;;;12.97;8.67;;;1.20;99.90;;;;;;5030005;28;20212;-74
2022/01/10 07:55:05;;;;;;;11.93;8.07;;;1.20;99.90;;;;;;5021946;28;20184;-73
2022/01/10 07:57:30;;;;;;;10.73;8.87;;;1.20;99.90;;;;;;5017003;28;20193;-73
2022/01/10 07:59:56;;;;;;;8.83;7.93;;;1.20;99.90;;;;;;5015884;28;20204;-73
2022/01/10 08:02:22;;;;;;;11.27;8.37;;;1.20;99.90;;;;;;5022334;28;20226;-74
2022/01/10 08:04:48;;;;;;;10.60;8.20;;;1.20;99.90;;;;;;5025006;28;20555;-74
2022/01/10 08:07:14;;;;;;;12.43;8.43;;;1.20;99.90;;;;;;5023504;28;20282;-74
2022/01/10 08:09:39;;;;;;;14.20;10.90;;;1.30;99.90;;;;;;5025904;28;20968;-74
2022/01/10 08:12:06;;;;;;;15.57;9.47;;;1.30;99.90;;;;;;5021109;28;20197;-74
2022/01/10 08:14:32;;;;;;;11.80;8.17;;;1.30;99.90;;;;;;5023823;28;20661;-73
2022/01/10 08:16:59;;;;;;;10.20;8.30;;;1.40;99.90;;;;;;5030218;28;20195;-72
2022/01/10 08:19:26;;;;;;;13.13;8.50;;;1.40;99.90;;;;;;5032798;28;20658;-73
2022/01/10 08:21:55;;;;;;;10.60;7.77;;;1.40;99.90;;;;;;5025471;28;20208;-74
2022/01/10 08:24:22;;;;;;;13.53;9.70;;;1.50;99.90;;;;;;5020267;28;20232;-74
2022/01/10 08:26:49;;;;;;;10.23;8.67;;;1.50;99.90;;;;;;5023258;28;20255;-74
2022/01/10 08:29:14;;;;;;;12.30;8.50;;;1.50;99.90;;;;;;5031414;28;20196;-74
2022/01/10 08:31:40;;;;;;;11.27;7.93;;;1.60;99.90;;;;;;5020127;28;20243;-74
2022/01/10 08:34:06;;;;;;;10.53;9.53;;;1.70;99.90;;;;;;5032223;28;20707;-74
2022/01/10 08:36:33;;;;;;;10.40;8.27;;;1.70;99.90;;;;;;5031617;28;20187;-74
2022/01/10 08:38:58;;;;;;;13.40;9.37;;;1.80;99.90;;;;;;5025932;28;20210;-72
2022/01/10 08:41:24;;;;;;;16.03;9.40;;;1.80;99.90;;;;;;5030879;28;20664;-71
2022/01/10 08:43:50;;;;;;;16.90;10.50;;;1.80;99.90;;;;;;5029307;28;20185;-73
2022/01/10 08:46:15;;;;;;;12.37;8.60;;;1.90;99.90;;;;;;5026360;28;20176;-73
2022/01/10 08:48:41;;;;;;;9.03;7.43;;;2.00;99.90;;;;;;5029331;28;20584;-72
2022/01/10 08:51:07;;;;;;;12.07;8.23;;;2.20;99.90;;;;;;5029461;28;20215;-71
2022/01/10 08:53:33;;;;;;;12.33;8.33;;;2.20;99.90;;;;;;5030541;28;20204;-72
2022/01/10 08:56:00;;;;;;;12.83;7.97;;;2.30;99.90;;;;;;5032716;28;20211;-71
2022/01/10 08:58:32;;;;;;;10.27;8.30;;;2.50;99.90;;;;;;5034478;28;20534;-71
2022/01/10 09:01:04;;;;;;;14.13;8.70;;;2.70;99.90;;;;;;5028510;28;20215;-71
2022/01/10 09:03:30;;;;;;;9.73;8.13;;;2.90;99.90;;;;;;5019010;28;20670;-70
2022/01/10 09:05:56;;;;;;;12.20;8.43;;;3.40;99.90;;;;;;5032911;28;20220;-70
2022/01/10 09:08:31;;;;;;;11.70;7.80;;;3.80;99.90;;;;;;5029526;28;20233;-73
2022/01/10 09:10:57;;;;;;;8.77;6.95;;;4.00;99.90;;;;;;5029068;28;20188;-73
2022/01/10 09:13:23;;;;;;;8.77;6.73;;;4.20;99.90;;;;;;5021844;28;20204;-73
2022/01/10 09:15:48;;;;;;;7.72;7.03;;;4.50;99.90;;;;;;5024934;28;20547;-73
2022/01/10 09:18:14;;;;;;;7.90;7.05;;;4.60;99.90;;;;;;5033772;28;20192;-73
2022/01/10 09:20:42;;;;;;;9.07;6.80;;;4.50;99.90;;;;;;5030578;28;20232;-72
2022/01/10 09:23:07;;;;;;;7.25;6.55;;;4.50;99.90;;;;;;5029916;28;20204;-72
2022/01/10 09:25:33;;;;;;;10.40;7.00;;;4.60;99.90;;;;;;5024888;28;20211;-73
2022/01/10 09:27:58;;;;;;;8.65;7.07;;;4.60;99.90;;;;;;5026766;28;20184;-73
2022/01/10 09:30:24;;;;;;;8.13;7.03;;;4.60;99.90;;;;;;5034405;28;20239;-72
2022/01/10 09:32:50;;;;;;;7.97;6.68;;;4.60;99.90;;;;;;5029465;28;20204;-72
2022/01/10 09:35:16;;;;;;;11.23;7.15;;;4.60;99.90;;;;;;5034128;28;20676;-70
2022/01/10 09:37:41;;;;;;;8.88;7.25;;;4.60;99.90;;;;;;5031565;28;20556;-69
2022/01/10 09:40:08;;;;;;;9.25;6.53;;;4.60;99.90;;;;;;5032944;28;20201;-75
2022/01/10 09:42:34;;;;;;;6.82;6.13;;;4.50;99.90;;;;;;5025365;28;20718;-73
2022/01/10 09:45:01;;;;;;;8.05;6.55;;;4.50;99.90;;;;;;5035539;28;20207;-73
2022/01/10 09:47:26;;;;;;;9.00;6.32;;;4.60;99.90;;;;;;5026229;28;20212;-73
2022/01/10 09:49:52;;;;;;;8.65;6.88;;;4.50;99.90;;;;;;5029272;28;20212;-74
2022/01/10 09:52:18;;;;;;;7.65;6.95;;;4.60;99.90;;;;;;5029735;28;20200;-73
2022/01/10 09:54:44;;;;;;;8.00;6.75;;;4.80;99.90;;;;;;5024555;28;20193;-74
2022/01/10 09:57:10;;;;;;;7.43;6.60;;;4.70;99.90;;;;;;5029457;28;20211;-74
2022/01/10 09:59:36;;;;;;;8.43;6.75;;;4.90;99.90;;;;;;5030000;28;20189;-73
2022/01/10 10:02:04;;;;;;;7.63;6.18;;;4.80;99.90;;;;;;5027764;28;20281;-73
2022/01/10 10:04:33;;;;;;;9.73;7.53;;;4.90;99.90;;;;;;5029953;28;20182;-73
2022/01/10 10:07:00;;;;;;;9.05;6.90;;;4.90;99.90;;;;;;5029180;28;20211;-74
2022/01/10 10:09:26;;;;;;;7.43;6.82;;;5.10;99.90;;;;;;5037710;28;20219;-74
2022/01/10 10:11:53;;;;;;;8.23;6.65;;;5.30;99.90;;;;;;5029906;28;20228;-73
2022/01/10 10:14:22;;;;;;;8.80;7.47;;;5.50;99.90;;;;;;5023456;28;20188;-73
2022/01/10 10:16:51;;;;;;;11.50;6.93;;;5.50;99.90;;;;;;5032755;28;20636;-73
2022/01/10 10:19:22;;;;;;;10.05;6.90;;;5.20;99.90;;;;;;5030216;28;20188;-75
2022/01/10 10:21:49;;;;;;;8.98;7.10;;;5.10;99.90;;;;;;5027051;28;20217;-73
2022/01/10 10:24:15;;;;;;;8.85;7.03;;;5.00;99.90;;;;;;5024937;28;20642;-73
2022/01/10 10:26:41;;;;;;;9.07;7.65;;;4.90;99.90;;;;;;5021399;28;20277;-72
2022/01/10 10:29:09;;;;;;;8.38;6.93;;;4.60;99.90;;;;;;5031014;28;20184;-74
2022/01/10 10:31:50;;;;;;;10.25;7.65;;;4.60;99.90;;;;;;5022629;28;20205;-74
2022/01/10 10:34:19;;;;;;;9.65;8.30;;;4.60;99.90;;;;;;5028310;28;20199;-75
2022/01/10 10:36:57;;;;;;;7.68;6.88;;;4.60;99.90;;;;;;5029312;28;20189;-75
2022/01/10 10:39:25;;;;;;;8.70;7.57;;;4.40;99.90;;;;;;5028744;28;20177;-74
2022/01/10 10:41:55;;;;;;;9.15;7.88;;;4.40;99.90;;;;;;5029175;28;20208;-72
2022/01/10 10:44:21;;;;;;;9.40;8.20;;;4.60;99.90;;;;;;5026729;28;20532;-72
2022/01/10 10:46:50;;;;;;;10.63;8.73;;;4.70;99.90;;;;;;5033445;28;20287;-72
2022/01/10 10:49:18;;;;;;;10.45;8.18;;;4.70;99.90;;;;;;5029138;28;20172;-72
2022/01/10 10:51:47;;;;;;;10.57;8.05;;;4.80;99.90;;;;;;5026704;28;20236;-72
2022/01/10 10:54:14;;;;;;;8.98;7.93;;;4.80;99.90;;;;;;5031991;28;20417;-73
2022/01/10 10:56:42;;;;;;;10.48;8.40;;;4.90;99.90;;;;;;5032232;28;20215;-72
2022/01/10 10:59:08;;;;;;;9.13;8.23;;;4.80;99.90;;;;;;5024665;28;20187;-72
2022/01/10 11:01:39;;;;;;;8.40;7.30;;;4.80;99.90;;;;;;5022955;28;20215;-72
2022/01/10 11:04:09;;;;;;;8.57;7.55;;;4.90;99.90;;;;;;5023975;28;20717;-75
2022/01/10 11:06:36;;;;;;;9.70;8.27;;;4.60;99.90;;;;;;5031020;28;20242;-72
2022/01/10 11:09:09;;;;;;;11.25;8.40;;;4.50;99.90;;;;;;5031152;28;20184;-72
2022/01/10 11:11:35;;;;;;;8.93;8.00;;;4.30;99.90;;;;;;5018807;28;20181;-72
2022/01/10 11:14:01;;;;;;;10.45;8.63;;;4.30;99.90;;;;;;5030863;28;20191;-72
2022/01/10 11:16:28;;;;;;;10.43;8.52;;;4.40;99.90;;;;;;5025816;28;20185;-72
2022/01/10 11:18:54;;;;;;;10.48;8.90;;;4.40;99.90;;;;;;5027163;28;20177;-72
2022/01/10 11:21:23;;;;;;;12.93;9.77;;;4.30;99.90;;;;;;5027249;28;20567;-72
2022/01/10 11:23:50;;;;;;;11.55;8.25;;;4.10;99.90;;;;;;5032167;28;20656;-71
2022/01/10 11:26:17;;;;;;;12.57;8.27;;;4.20;99.90;;;;;;5018819;28;20173;-72
2022/01/10 11:28:48;;;;;;;10.00;7.97;;;4.30;99.90;;;;;;5018914;28;20664;-71
2022/01/10 11:31:20;;;;;;;11.20;8.55;;;4.50;99.90;;;;;;5018042;28;20631;-71
2022/01/10 11:33:47;;;;;;;10.63;8.65;;;4.90;99.90;;;;;;5018057;28;20209;-72
2022/01/10 11:36:13;;;;;;;8.05;7.28;;;5.00;99.90;;;;;;5021756;28;20323;-71
2022/01/10 11:38:57;;;;;;;10.93;7.95;;;5.00;99.90;;;;;;5016688;28;20227;-72
2022/01/10 11:41:24;;;;;;;11.38;7.57;;;5.00;99.90;;;;;;5019783;28;20205;-72
2022/01/10 11:44:13;;;;;;;8.10;6.88;;;5.10;99.90;;;;;;5017690;28;20181;-71
2022/01/10 11:46:41;;;;;;;8.68;6.70;;;5.10;99.90;;;;;;5015381;28;20184;-71
2022/01/10 11:49:12;;;;;;;7.90;7.13;;;5.20;99.90;;;;;;5028984;28;20187;-71
2022/01/10 11:51:49;;;;;;;7.82;7.03;;;5.30;99.90;;;;;;5024995;28;20199;-70
2022/01/10 11:54:23;;;;;;;7.63;6.25;;;5.40;99.90;;;;;;5026767;28;20176;-71
2022/01/10 11:56:50;;;;;;;8.07;6.95;;;5.40;99.90;;;;;;5021955;28;20181;-70
2022/01/10 11:59:29;;;;;;;8.48;6.88;;;5.20;99.90;;;;;;5028457;28;20803;-71
2022/01/10 12:02:02;;;;;;;7.72;6.88;;;5.20;99.90;;;;;;5029638;28;20239;-71
2022/01/10 12:04:35;;;;;;;6.90;6.30;;;5.20;99.90;;;;;;5030223;28;20195;-71
2022/01/10 12:07:03;;;;;;;7.78;6.32;;;5.20;99.90;;;;;;5027125;28;20172;-71
2022/01/10 12:09:28;;;;;;;9.00;6.55;;;5.40;99.90;;;;;;5014567;28;20188;-71
2022/01/10 12:11:57;;;;;;;7.03;6.32;;;5.90;99.90;;;;;;5014685;28;20209;-72
2022/01/10 12:14:23;;;;;;;7.13;5.95;;;7.80;99.90;;;;;;5013665;28;20597;-71
2022/01/10 12:16:50;;;;;;;6.07;5.53;;;9.60;99.90;;;;;;5014038;28;20537;-71
2022/01/10 12:19:17;;;;;;;6.57;5.18;;;11.60;99.90;;;;;;5015219;28;20203;-71
2022/01/10 12:21:42;;;;;;;5.85;4.70;;;13.40;99.90;;;;;;5022877;28;20215;-72
2022/01/10 12:24:09;;;;;;;5.60;4.93;;;14.10;99.90;;;;;;5027431;28;20276;-71
2022/01/10 12:26:36;;;;;;;5.75;4.60;;;15.10;97.60;;;;;;5025688;28;20644;-72
2022/01/10 12:29:04;;;;;;;4.88;4.43;;;15.60;93.60;;;;;;5031908;28;20205;-73
2022/01/10 12:31:31;;;;;;;5.10;4.55;;;15.80;90.40;;;;;;5028061;28;20652;-73
2022/01/10 12:33:58;;;;;;;5.22;4.82;;;16.30;89.60;;;;;;5017902;28;20197;-73
2022/01/10 12:36:26;;;;;;;4.68;4.18;;;15.70;87.40;;;;;;5018149;28;20191;-74
2022/01/10 12:38:58;;;;;;;5.03;4.60;;;15.40;86.90;;;;;;5022166;28;20204;-73
2022/01/10 12:41:25;;;;;;;5.18;4.78;;;15.50;89.00;;;;;;5021127;28;20201;-73
2022/01/10 12:43:52;;;;;;;4.55;4.13;;;15.30;84.00;;;;;;5024238;28;20590;-73
2022/01/10 12:46:18;;;;;;;3.85;3.55;;;15.70;85.50;;;;;;5016605;28;20664;-73
2022/01/10 12:48:47;;;;;;;5.78;3.78;;;15.80;80.90;;;;;;5024260;28;20203;-78
2022/01/10 12:51:17;;;;;;;4.68;3.83;;;15.30;82.50;;;;;;5030906;28;20181;-76
2022/01/10 12:53:47;;;;;;;5.63;4.35;;;14.00;85.80;;;;;;5021848;28;20291;-76
2022/01/10 12:56:22;;;;;;;4.38;3.97;;;12.90;89.40;;;;;;5032056;28;20612;-76
2022/01/10 12:58:48;;;;;;;3.97;3.47;;;13.00;91.40;;;;;;5026409;28;20682;-76
2022/01/10 13:01:15;;;;;;;5.97;4.25;;;13.10;89.70;;;;;;5016397;28;20212;-77
2022/01/10 13:03:53;;;;;;;4.47;3.95;;;12.10;91.10;;;;;;5020956;28;20193;-77
2022/01/10 13:06:20;;;;;;;4.25;3.83;;;10.90;93.40;;;;;;5028439;28;20286;-77